sensor_id;sensor_type;location;lat;lon;timestamp;P1;durP1;ratioP1;P2;durP2;ratioP2
5827;SDS011;42583;50.240;8.444;2023-02-19T00:09:05;8.77;;;5.28;;
5827;SDS011;42583;50.240;8.444;2023-02-19T00:24:06;8.95;;;5.15;;
5827;SDS011;42583;50.240;8.444;2023-02-19T00:39:10;6.30;;;4.25;;
5827;SDS011;42583;50.240;8.444;2023-02-19T00:54:14;7.23;;;4.30;;
5827;SDS011;42583;50.240;8.444;2023-02-19T01:09:15;8.13;;;3.88;;
5827;SDS011;42583;50.240;8.444;2023-02-19T01:24:16;4.70;;;3.50;;
5827;SDS011;42583;50.240;8.444;2023-02-19T01:39:16;5.65;;;3.90;;
5827;SDS011;42583;50.240;8.444;2023-02-19T01:54:18;5.80;;;3.28;;
5827;SDS011;42583;50.240;8.444;2023-02-19T02:09:21;4.10;;;2.70;;
5827;SDS011;42583;50.240;8.444;2023-02-19T02:40:15;4.43;;;3.00;;
5827;SDS011;42583;50.240;8.444;2023-02-19T02:55:17;3.60;;;2.70;;
5827;SDS011;42583;50.240;8.444;2023-02-19T03:10:19;4.13;;;2.03;;
5827;SDS011;42583;50.240;8.444;2023-02-19T03:25:29;2.22;;;2.03;;
5827;SDS011;42583;50.240;8.444;2023-02-19T03:56:08;1.90;;;1.70;;
5827;SDS011;42583;50.240;8.444;2023-02-19T04:11:13;2.88;;;2.15;;
5827;SDS011;42583;50.240;8.444;2023-02-19T04:26:15;7.35;;;2.30;;
5827;SDS011;42583;50.240;8.444;2023-02-19T04:41:19;4.05;;;2.67;;
5827;SDS011;42583;50.240;8.444;2023-02-19T04:56:19;5.72;;;3.20;;
5827;SDS011;42583;50.240;8.444;2023-02-19T05:11:20;4.75;;;2.55;;
5827;SDS011;42583;50.240;8.444;2023-02-19T05:26:22;6.47;;;2.60;;
5827;SDS011;42583;50.240;8.444;2023-02-19T05:41:26;6.20;;;2.53;;
5827;SDS011;42583;50.240;8.444;2023-02-19T06:11:28;6.30;;;2.80;;
5827;SDS011;42583;50.240;8.444;2023-02-19T06:26:29;5.20;;;2.75;;
5827;SDS011;42583;50.240;8.444;2023-02-19T06:41:30;17.58;;;3.08;;
5827;SDS011;42583;50.240;8.444;2023-02-19T06:56:32;8.08;;;2.92;;
5827;SDS011;42583;50.240;8.444;2023-02-19T07:11:40;229.30;;;6.55;;
5827;SDS011;42583;50.240;8.444;2023-02-19T07:26:40;65.50;;;4.05;;
5827;SDS011;42583;50.240;8.444;2023-02-19T07:41:41;164.00;;;6.15;;
5827;SDS011;42583;50.240;8.444;2023-02-19T07:56:41;12.52;;;3.25;;
5827;SDS011;42583;50.240;8.444;2023-02-19T08:11:42;12.45;;;3.10;;
5827;SDS011;42583;50.240;8.444;2023-02-19T08:27:01;9.20;;;4.10;;
5827;SDS011;42583;50.240;8.444;2023-02-19T08:42:01;9.82;;;4.72;;
5827;SDS011;42583;50.240;8.444;2023-02-19T08:57:02;13.15;;;4.72;;
5827;SDS011;42583;50.240;8.444;2023-02-19T09:12:04;9.85;;;3.88;;
5827;SDS011;42583;50.240;8.444;2023-02-19T09:27:06;9.95;;;4.57;;
5827;SDS011;42583;50.240;8.444;2023-02-19T09:42:15;9.35;;;3.50;;
5827;SDS011;42583;50.240;8.444;2023-02-19T09:57:29;7.50;;;2.83;;
5827;SDS011;42583;50.240;8.444;2023-02-19T10:12:32;182.52;;;5.28;;
5827;SDS011;42583;50.240;8.444;2023-02-19T10:27:34;11.18;;;3.97;;
5827;SDS011;42583;50.240;8.444;2023-02-19T10:42:34;27.40;;;4.55;;
5827;SDS011;42583;50.240;8.444;2023-02-19T10:57:45;620.80;;;15.52;;
5827;SDS011;42583;50.240;8.444;2023-02-19T11:12:46;15.00;;;7.38;;
5827;SDS011;42583;50.240;8.444;2023-02-19T11:27:56;19.17;;;7.10;;
5827;SDS011;42583;50.240;8.444;2023-02-19T11:58:54;16.52;;;6.20;;
5827;SDS011;42583;50.240;8.444;2023-02-19T12:44:47;12.25;;;5.90;;
5827;SDS011;42583;50.240;8.444;2023-02-19T12:59:55;12.60;;;5.80;;
5827;SDS011;42583;50.240;8.444;2023-02-19T13:15:13;12.70;;;5.65;;
5827;SDS011;42583;50.240;8.444;2023-02-19T13:45:23;8.50;;;4.30;;
5827;SDS011;42583;50.240;8.444;2023-02-19T14:00:48;13.32;;;3.80;;
5827;SDS011;42583;50.240;8.444;2023-02-19T14:15:53;9.05;;;3.58;;
5827;SDS011;42583;50.240;8.444;2023-02-19T14:46:15;5.57;;;2.83;;
5827;SDS011;42583;50.240;8.444;2023-02-19T15:01:30;8.40;;;3.50;;
5827;SDS011;42583;50.240;8.444;2023-02-19T15:16:31;5.85;;;2.65;;
5827;SDS011;42583;50.240;8.444;2023-02-19T15:31:34;7.60;;;3.20;;
5827;SDS011;42583;50.240;8.444;2023-02-19T15:46:35;5.95;;;2.97;;
5827;SDS011;42583;50.240;8.444;2023-02-19T16:01:37;9.15;;;4.60;;
5827;SDS011;42583;50.240;8.444;2023-02-19T16:16:39;6.07;;;2.83;;
5827;SDS011;42583;50.240;8.444;2023-02-19T16:31:45;5.97;;;3.53;;
5827;SDS011;42583;50.240;8.444;2023-02-19T16:46:48;6.00;;;2.97;;
5827;SDS011;42583;50.240;8.444;2023-02-19T17:01:50;7.45;;;3.30;;
5827;SDS011;42583;50.240;8.444;2023-02-19T17:16:51;8.23;;;3.38;;
5827;SDS011;42583;50.240;8.444;2023-02-19T17:31:52;5.95;;;2.88;;
5827;SDS011;42583;50.240;8.444;2023-02-19T17:46:55;7.70;;;3.80;;
5827;SDS011;42583;50.240;8.444;2023-02-19T18:01:56;6.50;;;4.10;;
5827;SDS011;42583;50.240;8.444;2023-02-19T18:16:56;7.50;;;3.95;;
5827;SDS011;42583;50.240;8.444;2023-02-19T18:31:57;12.63;;;4.53;;
5827;SDS011;42583;50.240;8.444;2023-02-19T18:46:58;11.80;;;4.28;;
5827;SDS011;42583;50.240;8.444;2023-02-19T19:01:58;207.45;;;8.77;;
5827;SDS011;42583;50.240;8.444;2023-02-19T19:16:59;54.13;;;6.20;;
5827;SDS011;42583;50.240;8.444;2023-02-19T19:32:00;12.25;;;6.00;;
5827;SDS011;42583;50.240;8.444;2023-02-19T19:47:01;12.88;;;6.25;;
5827;SDS011;42583;50.240;8.444;2023-02-19T20:02:01;64.20;;;7.30;;
5827;SDS011;42583;50.240;8.444;2023-02-19T20:17:02;12.30;;;6.78;;
5827;SDS011;42583;50.240;8.444;2023-02-19T20:32:02;15.88;;;7.18;;
5827;SDS011;42583;50.240;8.444;2023-02-19T20:47:03;148.68;;;9.10;;
5827;SDS011;42583;50.240;8.444;2023-02-19T21:02:05;16.67;;;7.13;;
5827;SDS011;42583;50.240;8.444;2023-02-19T21:17:27;16.00;;;7.20;;
5827;SDS011;42583;50.240;8.444;2023-02-19T21:32:28;18.48;;;8.70;;
5827;SDS011;42583;50.240;8.444;2023-02-19T21:47:28;16.05;;;7.28;;
5827;SDS011;42583;50.240;8.444;2023-02-19T22:02:29;16.45;;;8.25;;
5827;SDS011;42583;50.240;8.444;2023-02-19T22:17:30;16.92;;;7.93;;
5827;SDS011;42583;50.240;8.444;2023-02-19T22:32:31;16.60;;;7.35;;
5827;SDS011;42583;50.240;8.444;2023-02-19T22:47:32;16.50;;;7.03;;
5827;SDS011;42583;50.240;8.444;2023-02-19T23:02:32;13.43;;;7.15;;
5827;SDS011;42583;50.240;8.444;2023-02-19T23:17:33;12.20;;;6.07;;
5827;SDS011;42583;50.240;8.444;2023-02-19T23:32:33;10.57;;;5.57;;
5827;SDS011;42583;50.240;8.444;2023-02-19T23:47:34;12.45;;;6.43;;
